createdAt,value
2022-12-08T00:02:26.077Z,4.83
2022-12-08T00:07:48.217Z,4.92
2022-12-08T00:12:51.271Z,6.87
2022-12-08T00:17:54.481Z,4.93
2022-12-08T00:22:57.589Z,4.46
2022-12-08T00:28:00.797Z,6.58
2022-12-08T00:33:03.900Z,5.43
2022-12-08T00:38:07.006Z,3.92
2022-12-08T00:43:10.114Z,6.23
2022-12-08T00:48:13.221Z,6.67
2022-12-08T00:53:16.326Z,4.23
2022-12-08T00:58:19.352Z,4.49
2022-12-08T01:03:22.623Z,6.99
2022-12-08T01:08:25.899Z,5.43
2022-12-08T01:13:28.954Z,3.93
2022-12-08T01:18:32.999Z,5.81
2022-12-08T01:23:36.094Z,4.78
2022-12-08T01:28:40.387Z,4.47
2022-12-08T01:33:44.950Z,6.62
2022-12-08T01:38:48.174Z,4.77
2022-12-08T01:44:08.569Z,3.35
2022-12-08T01:49:19.782Z,5.61
2022-12-08T01:54:28.256Z,7.30
2022-12-08T01:59:37.969Z,5.14
2022-12-08T02:04:41.184Z,3.40
2022-12-08T02:09:45.491Z,4.81
2022-12-08T02:14:48.626Z,5.83
2022-12-08T02:20:22.860Z,3.86
2022-12-08T02:25:31.600Z,4.59
2022-12-08T02:31:07.367Z,7.32
2022-12-08T02:36:36.929Z,5.92
2022-12-08T02:41:54.559Z,3.76
2022-12-08T02:47:12.705Z,4.09
2022-12-08T02:52:15.722Z,7.07
2022-12-08T02:58:02.773Z,7.30
2022-12-08T03:03:17.729Z,4.47
2022-12-08T03:08:42.393Z,3.17
2022-12-08T03:13:51.692Z,5.52
2022-12-08T03:19:17.668Z,7.35
2022-12-08T03:24:23.501Z,5.52
2022-12-08T03:29:27.035Z,3.86
2022-12-08T03:34:31.490Z,6.12
2022-12-08T03:39:34.562Z,6.07
2022-12-08T03:44:37.681Z,3.82
2022-12-08T03:49:41.036Z,4.98
2022-12-08T03:54:44.188Z,6.29
2022-12-08T03:59:47.501Z,4.15
2022-12-08T04:04:51.319Z,4.36
2022-12-08T04:09:54.327Z,7.22
2022-12-08T04:14:57.332Z,7.33
2022-12-08T04:20:00.434Z,4.51
2022-12-08T04:25:04.567Z,3.17
2022-12-08T04:30:08.985Z,5.36
2022-12-08T04:35:12.051Z,7.55
2022-12-08T04:40:15.636Z,6.85
2022-12-08T04:45:18.940Z,4.41
2022-12-08T04:50:22.450Z,4.42
2022-12-08T04:55:25.768Z,7.21
2022-12-08T05:00:28.867Z,7.28
2022-12-08T05:05:31.999Z,4.83
2022-12-08T05:10:35.184Z,4.45
2022-12-08T05:15:38.305Z,6.78
2022-12-08T05:20:41.405Z,5.65
2022-12-08T05:25:44.405Z,4.05
2022-12-08T05:30:48.329Z,6.28
2022-12-08T05:35:51.443Z,6.99
2022-12-08T05:40:54.537Z,4.62
2022-12-08T05:45:57.733Z,4.53
2022-12-08T05:51:02.182Z,6.72
2022-12-08T05:56:05.714Z,5.25
2022-12-08T06:01:30.672Z,3.55
2022-12-08T06:06:35.977Z,5.73
2022-12-08T06:11:39.190Z,7.41
2022-12-08T06:16:42.494Z,5.52
2022-12-08T06:21:45.809Z,3.62
2022-12-08T06:26:49.126Z,4.60
2022-12-08T06:31:53.236Z,7.02
2022-12-08T06:36:56.660Z,6.90
2022-12-08T06:42:18.821Z,4.51
2022-12-08T06:47:26.223Z,5.19
2022-12-08T06:52:29.641Z,6.64
2022-12-08T06:57:32.781Z,4.93
2022-12-08T07:02:35.944Z,3.42
2022-12-08T07:07:39.206Z,5.08
2022-12-08T07:12:42.370Z,7.32
2022-12-08T07:17:45.582Z,6.88
2022-12-08T07:22:53.187Z,4.46
2022-12-08T07:27:56.201Z,3.14
2022-12-08T07:32:59.294Z,2.68
2022-12-08T07:38:03.119Z,5.34
2022-12-08T07:43:06.169Z,6.59
2022-12-08T07:48:09.436Z,4.56
2022-12-08T07:53:13.185Z,3.26
2022-12-08T07:58:16.262Z,5.61
2022-12-08T08:03:19.899Z,4.70
2022-12-08T08:08:23.171Z,3.24
2022-12-08T08:13:26.303Z,2.43
2022-12-08T08:18:29.710Z,1.99
2022-12-08T08:23:33.831Z,3.85
2022-12-08T08:28:37.356Z,6.76
2022-12-08T08:33:40.466Z,5.33
2022-12-08T08:38:44.387Z,3.66
2022-12-08T08:43:47.492Z,2.74
2022-12-08T08:48:50.622Z,2.18
2022-12-08T08:53:53.718Z,3.94
2022-12-08T08:58:56.932Z,7.29
2022-12-08T09:04:00.463Z,7.43
2022-12-08T09:09:04.157Z,5.04
2022-12-08T09:14:07.407Z,3.56
2022-12-08T09:19:11.302Z,2.67
2022-12-08T09:24:17.300Z,2.06
2022-12-08T09:29:20.574Z,1.69
2022-12-08T09:34:23.903Z,3.00
2022-12-08T09:39:27.194Z,6.29
2022-12-08T09:44:35.958Z,5.43
2022-12-08T09:50:07.986Z,3.69
2022-12-08T09:55:49.119Z,2.61
2022-12-08T10:00:52.733Z,1.93
2022-12-08T10:06:18.466Z,3.20
2022-12-08T10:11:41.132Z,6.49
2022-12-08T10:16:52.205Z,6.49
2022-12-08T10:21:58.036Z,4.19
2022-12-08T10:27:03.423Z,2.88
2022-12-08T10:32:23.050Z,2.18
2022-12-08T10:37:26.190Z,1.83
2022-12-08T10:42:46.225Z,1.65
2022-12-08T10:48:00.752Z,1.57
2022-12-08T10:53:21.665Z,2.82
2022-12-08T10:58:43.570Z,6.70
2022-12-08T11:04:01.761Z,7.24
2022-12-08T11:09:24.034Z,4.87
2022-12-08T11:14:44.859Z,3.52
2022-12-08T11:20:21.838Z,2.74
2022-12-08T11:25:27.883Z,2.22
2022-12-08T11:30:54.576Z,3.29
2022-12-08T11:36:09.669Z,6.70
2022-12-08T11:41:20.455Z,7.00
2022-12-08T11:46:35.593Z,5.07
2022-12-08T11:51:47.244Z,3.86
2022-12-08T11:56:57.689Z,3.18
2022-12-08T12:02:04.677Z,2.80
2022-12-08T12:07:40.202Z,2.53
2022-12-08T12:13:12.700Z,2.30
2022-12-08T12:18:34.128Z,4.01
2022-12-08T12:24:03.876Z,7.28
2022-12-08T12:29:20.140Z,7.59
2022-12-08T12:34:48.354Z,5.44
2022-12-08T12:40:07.355Z,4.12
2022-12-08T12:45:33.487Z,3.34
2022-12-08T12:50:52.794Z,3.04
2022-12-08T12:56:03.633Z,5.82
2022-12-08T13:01:12.930Z,8.06
2022-12-08T13:06:43.456Z,7.85
2022-12-08T13:11:55.733Z,5.36
2022-12-08T13:17:02.072Z,3.97
2022-12-08T13:22:46.965Z,3.10
2022-12-08T13:27:55.483Z,2.45
2022-12-08T13:33:18.448Z,3.32
2022-12-08T13:38:30.445Z,6.78
2022-12-08T13:44:02.224Z,8.45
2022-12-08T13:56:05.540Z,7.21
2022-12-08T14:00:18.388Z,5.13
2022-12-08T14:05:47.558Z,3.89
2022-12-08T14:10:59.973Z,3.03
2022-12-08T14:16:03.109Z,2.45
2022-12-08T14:21:20.901Z,3.22
2022-12-08T14:26:25.571Z,6.64
2022-12-08T14:31:29.660Z,8.00
2022-12-08T14:36:34.134Z,8.79
2022-12-08T14:41:37.976Z,8.28
2022-12-08T14:47:10.355Z,6.03
2022-12-08T14:52:14.679Z,4.38
2022-12-08T14:57:19.022Z,3.41
2022-12-08T15:02:32.206Z,2.80
2022-12-08T15:07:53.105Z,4.87
2022-12-08T15:13:26.711Z,7.44
2022-12-08T15:18:39.788Z,8.65
2022-12-08T15:23:50.247Z,8.33
2022-12-08T15:28:55.155Z,5.77
2022-12-08T15:33:58.317Z,4.21
2022-12-08T15:39:01.802Z,4.28
2022-12-08T15:44:05.049Z,7.36
2022-12-08T15:49:18.716Z,9.35
2022-12-08T15:54:23.208Z,9.03
2022-12-08T15:59:26.417Z,6.20
2022-12-08T16:09:53.928Z,5.06
2022-12-08T16:20:28.156Z,9.69
2022-12-08T16:26:16.171Z,9.13
2022-12-08T16:31:10.286Z,6.29
2022-12-08T16:36:16.336Z,4.68
2022-12-08T16:41:38.385Z,3.71
2022-12-08T16:46:41.684Z,4.42
2022-12-08T16:51:44.893Z,7.39
2022-12-08T16:56:47.994Z,8.99
2022-12-08T17:01:51.310Z,9.46
2022-12-08T17:06:54.666Z,7.14
2022-12-08T17:12:03.452Z,5.15
2022-12-08T17:17:07.442Z,3.95
2022-12-08T17:22:10.708Z,4.46
2022-12-08T17:27:14.015Z,7.52
2022-12-08T17:32:18.083Z,9.09
2022-12-08T17:37:21.344Z,9.28
2022-12-08T17:42:26.411Z,6.77
2022-12-08T17:47:29.512Z,4.86
2022-12-08T17:52:32.920Z,5.12
2022-12-08T17:57:36.124Z,8.29
2022-12-08T18:02:39.376Z,9.58
2022-12-08T18:07:45.901Z,7.49
2022-12-08T18:12:49.967Z,5.36
2022-12-08T18:17:53.163Z,4.13
2022-12-08T18:22:57.079Z,3.36
2022-12-08T18:28:00.411Z,4.25
2022-12-08T18:33:06.621Z,7.28
2022-12-08T18:38:09.849Z,8.59
2022-12-08T18:43:13.190Z,9.27
2022-12-08T18:48:16.511Z,8.80
2022-12-08T18:53:19.646Z,6.42
2022-12-08T18:58:23.028Z,4.93
2022-12-08T19:03:26.176Z,3.98
2022-12-08T19:08:31.488Z,3.37
2022-12-08T19:13:35.012Z,4.11
2022-12-08T19:18:39.344Z,6.99
2022-12-08T19:23:42.858Z,8.60
2022-12-08T19:28:46.006Z,9.09
2022-12-08T19:33:49.482Z,6.89
2022-12-08T19:39:11.245Z,5.15
2022-12-08T19:44:34.399Z,4.08
2022-12-08T19:49:38.636Z,4.85
2022-12-08T19:54:41.860Z,7.66
2022-12-08T19:59:45.054Z,8.90
2022-12-08T20:04:48.297Z,9.71
2022-12-08T20:09:51.668Z,9.20
2022-12-08T20:14:54.806Z,6.71
2022-12-08T20:20:00.505Z,5.14
2022-12-08T20:25:06.922Z,5.20
2022-12-08T20:30:16.779Z,7.72
2022-12-08T20:35:22.165Z,9.04
2022-12-08T20:40:25.315Z,9.68
2022-12-08T20:45:28.622Z,9.01
2022-12-08T20:50:31.953Z,6.56
2022-12-08T20:55:38.526Z,4.96
2022-12-08T21:00:43.487Z,5.52
2022-12-08T21:05:52.913Z,7.83
2022-12-08T21:10:57.478Z,9.13
2022-12-08T21:16:01.078Z,9.40
2022-12-08T21:21:09.221Z,7.64
2022-12-08T21:26:26.592Z,5.39
2022-12-08T21:31:32.134Z,4.04
2022-12-08T21:36:35.486Z,3.35
2022-12-08T21:41:58.399Z,5.41
2022-12-08T21:47:02.121Z,7.60
2022-12-08T21:52:05.960Z,8.92
2022-12-08T21:57:09.320Z,9.80
2022-12-08T22:02:19.457Z,8.79
2022-12-08T22:07:25.733Z,6.15
2022-12-08T22:12:29.139Z,4.67
2022-12-08T22:17:36.951Z,5.98
2022-12-08T22:22:41.829Z,8.12
2022-12-08T22:27:45.189Z,9.08
2022-12-08T22:32:48.779Z,9.39
2022-12-08T22:37:52.099Z,7.16
2022-12-08T22:42:55.382Z,5.21
2022-12-08T22:47:58.591Z,3.99
2022-12-08T22:53:02.115Z,3.21
2022-12-08T22:58:05.376Z,3.90
2022-12-08T23:03:08.856Z,6.96
2022-12-08T23:08:16.497Z,8.38
2022-12-08T23:13:21.922Z,9.15
2022-12-08T23:18:25.116Z,9.68
2022-12-08T23:23:28.233Z,7.97
2022-12-08T23:34:03.457Z,4.40
2022-12-08T23:39:07.346Z,3.71
2022-12-08T23:44:12.410Z,5.84
2022-12-08T23:49:16.522Z,7.53
2022-12-08T23:54:19.930Z,8.41
2022-12-08T23:59:23.237Z,9.09
